createdAt,value
2018-01-15T00:01:39.120Z,96140
2018-01-15T00:04:08.069Z,96134
2018-01-15T00:06:37.030Z,96129
2018-01-15T00:09:05.978Z,96137
2018-01-15T00:11:34.950Z,96123
2018-01-15T00:14:04.671Z,96121
2018-01-15T00:16:34.418Z,96125
2018-01-15T00:19:03.366Z,96128
2018-01-15T00:21:33.231Z,96129
2018-01-15T00:24:02.177Z,96125
2018-01-15T00:26:31.899Z,96128
2018-01-15T00:29:01.627Z,96119
2018-01-15T00:31:30.574Z,96119
2018-01-15T00:33:59.551Z,96117
2018-01-15T00:36:28.498Z,96111
2018-01-15T00:38:57.478Z,96106
2018-01-15T00:41:26.418Z,96106
2018-01-15T00:43:55.386Z,96114
2018-01-15T00:46:24.347Z,96103
2018-01-15T00:48:54.074Z,96106
2018-01-15T00:51:23.027Z,96104
2018-01-15T00:53:52.002Z,96101
2018-01-15T00:56:20.959Z,96096
2018-01-15T00:58:49.914Z,96089
2018-01-15T01:01:19.642Z,96103
2018-01-15T01:03:48.586Z,96092
2018-01-15T01:06:17.550Z,96105
2018-01-15T01:08:46.514Z,96102
2018-01-15T01:11:15.483Z,96099
2018-01-15T01:13:45.203Z,96099
2018-01-15T01:16:14.937Z,96102
2018-01-15T01:18:43.894Z,96093
2018-01-15T01:21:12.859Z,96089
2018-01-15T01:23:41.809Z,96093
2018-01-15T01:26:10.778Z,96099
2018-01-15T01:28:40.493Z,96088
2018-01-15T01:31:10.338Z,96097
2018-01-15T01:33:39.290Z,96087
2018-01-15T01:36:09.010Z,96078
2018-01-15T01:38:38.755Z,96082
2018-01-15T01:41:07.704Z,96082
2018-01-15T01:43:37.438Z,96092
2018-01-15T01:46:06.385Z,96078
2018-01-15T01:48:35.346Z,96084
2018-01-15T01:51:04.305Z,96087
2018-01-15T01:53:33.281Z,96078
2018-01-15T01:56:02.996Z,96083
2018-01-15T01:58:32.736Z,96084
2018-01-15T02:01:01.678Z,96079
2018-01-15T02:03:30.663Z,96078
2018-01-15T02:05:59.610Z,96084
2018-01-15T02:08:28.557Z,96067
2018-01-15T02:10:57.536Z,96071
2018-01-15T02:13:26.482Z,96067
2018-01-15T02:15:55.445Z,96067
2018-01-15T02:18:25.271Z,96073
2018-01-15T02:20:54.350Z,96075
2018-01-15T02:23:23.275Z,96068
2018-01-15T02:25:52.247Z,96067
2018-01-15T02:28:21.967Z,96070
2018-01-15T02:30:50.943Z,96070
2018-01-15T02:33:21.592Z,96063
2018-01-15T02:35:50.558Z,96063
2018-01-15T02:38:20.276Z,96063
2018-01-15T02:40:50.052Z,96067
2018-01-15T02:43:18.999Z,96054
2018-01-15T02:45:47.946Z,96070
2018-01-15T02:48:16.914Z,96063
2018-01-15T02:50:45.863Z,96067
2018-01-15T02:53:15.606Z,96062
2018-01-15T02:55:44.558Z,96062
2018-01-15T02:58:14.302Z,96053
2018-01-15T03:00:43.242Z,96052
2018-01-15T03:03:12.209Z,96086
2018-01-15T03:05:41.158Z,96048
2018-01-15T03:08:10.122Z,96051
2018-01-15T03:10:39.834Z,96042
2018-01-15T03:13:09.570Z,96049
2018-01-15T03:15:38.514Z,96039
2018-01-15T03:18:07.482Z,96033
2018-01-15T03:20:36.442Z,96032
2018-01-15T03:23:05.418Z,96040
2018-01-15T03:25:35.130Z,96037
2018-01-15T03:28:04.890Z,96030
2018-01-15T03:30:33.835Z,96038
2018-01-15T03:33:03.547Z,96034
2018-01-15T03:35:33.283Z,96030
2018-01-15T03:38:02.226Z,96038
2018-01-15T03:40:31.195Z,96033
2018-01-15T03:43:00.140Z,96037
2018-01-15T03:45:29.106Z,96030
2018-01-15T03:47:58.047Z,96033
2018-01-15T03:50:27.016Z,96014
2018-01-15T03:52:55.963Z,96023
2018-01-15T03:55:24.962Z,96020
2018-01-15T03:57:53.910Z,96020
2018-01-15T04:00:22.866Z,96024
2018-01-15T04:02:52.598Z,96018
2018-01-15T04:05:21.548Z,96014
2018-01-15T04:07:50.519Z,96022
2018-01-15T04:10:19.479Z,96007
2018-01-15T04:12:48.446Z,96004
2018-01-15T04:15:18.172Z,96002
2018-01-15T04:17:47.144Z,95996
2018-01-15T04:20:16.854Z,95999
2018-01-15T04:22:46.582Z,96000
2018-01-15T04:25:16.499Z,96005
2018-01-15T04:27:47.458Z,96003
2018-01-15T04:30:16.406Z,96001
2018-01-15T04:32:46.142Z,95995
2018-01-15T04:35:15.090Z,96000
2018-01-15T04:37:44.054Z,95982
2018-01-15T04:40:13.003Z,95987
2018-01-15T04:42:42.741Z,95989
2018-01-15T04:45:11.687Z,95980
2018-01-15T04:47:40.646Z,95987
2018-01-15T04:50:09.618Z,95984
2018-01-15T04:52:38.567Z,95977
2018-01-15T04:55:08.302Z,95973
2018-01-15T04:57:37.258Z,95985
2018-01-15T05:00:06.229Z,95983
2018-01-15T05:02:35.179Z,95977
2018-01-15T05:05:04.138Z,95976
2018-01-15T05:07:33.091Z,95977
2018-01-15T05:10:02.266Z,95977
2018-01-15T05:12:31.218Z,95973
2018-01-15T05:15:00.166Z,95967
2018-01-15T05:17:31.111Z,95956
2018-01-15T05:20:00.048Z,95958
2018-01-15T05:22:29.779Z,95965
2018-01-15T05:24:58.747Z,95960
2018-01-15T05:27:28.454Z,95950
2018-01-15T05:29:58.354Z,95959
2018-01-15T05:32:27.299Z,95978
2018-01-15T05:34:56.247Z,95956
2018-01-15T05:37:25.211Z,95955
2018-01-15T05:39:54.181Z,95946
2018-01-15T05:42:23.162Z,95957
2018-01-15T05:44:52.111Z,95951
2018-01-15T05:47:21.071Z,95945
2018-01-15T05:49:50.014Z,95937
2018-01-15T05:52:19.778Z,95938
2018-01-15T05:54:48.724Z,95938
2018-01-15T05:57:18.443Z,95939
2018-01-15T05:59:52.068Z,95938
2018-01-15T06:02:21.006Z,95930
2018-01-15T06:04:49.978Z,95940
2018-01-15T06:07:18.926Z,95943
2018-01-15T06:09:47.890Z,95937
2018-01-15T06:12:17.601Z,95938
2018-01-15T06:14:47.338Z,95944
2018-01-15T06:17:16.282Z,95937
2018-01-15T06:19:45.250Z,95937
2018-01-15T06:22:14.206Z,95934
2018-01-15T06:24:43.205Z,95932
2018-01-15T06:27:19.652Z,95938
2018-01-15T06:30:09.723Z,95931
2018-01-15T06:40:08.683Z,95932
2018-01-15T06:42:44.185Z,95534
2018-01-15T06:45:13.139Z,95925
2018-01-15T06:47:42.103Z,95935
2018-01-15T06:50:11.822Z,95933
2018-01-15T06:52:41.555Z,95928
2018-01-15T06:55:10.503Z,95933
2018-01-15T06:57:39.466Z,95935
2018-01-15T07:00:08.415Z,95929
2018-01-15T07:02:37.386Z,95932
2018-01-15T07:05:06.331Z,95928
2018-01-15T07:07:35.665Z,95923
2018-01-15T07:10:04.618Z,95926
2018-01-15T07:12:33.571Z,95925
2018-01-15T07:15:03.295Z,95924
2018-01-15T07:17:32.379Z,95916
2018-01-15T07:20:02.094Z,95918
2018-01-15T07:22:31.043Z,95916
2018-01-15T07:25:00.008Z,95918
2018-01-15T07:27:28.971Z,95912
2018-01-15T07:29:57.943Z,95911
2018-01-15T07:32:26.886Z,95908
2018-01-15T07:34:55.855Z,95919
2018-01-15T07:37:24.808Z,95920
2018-01-15T07:39:53.930Z,95916
2018-01-15T07:42:23.652Z,95918
2018-01-15T07:44:52.618Z,95924
2018-01-15T07:47:22.342Z,95920
2018-01-15T07:49:52.286Z,95924
2018-01-15T07:52:21.230Z,95919
2018-01-15T07:54:50.966Z,95914
2018-01-15T07:57:19.919Z,95914
2018-01-15T07:59:48.886Z,95918
2018-01-15T08:02:17.843Z,95924
2018-01-15T08:04:46.815Z,95819
2018-01-15T08:07:16.540Z,95912
2018-01-15T08:09:45.507Z,95902
2018-01-15T08:12:14.465Z,95902
2018-01-15T08:14:43.571Z,95903
2018-01-15T08:17:12.527Z,95897
2018-01-15T08:19:41.479Z,95892
2018-01-15T08:22:10.438Z,95895
2018-01-15T08:24:39.419Z,95901
2018-01-15T08:27:08.387Z,95895
2018-01-15T08:29:37.336Z,95891
2018-01-15T08:32:06.310Z,95897
2018-01-15T08:34:37.246Z,95892
2018-01-15T08:37:06.187Z,95889
2018-01-15T08:39:35.910Z,95895
2018-01-15T08:42:04.903Z,95897
2018-01-15T08:44:33.860Z,95887
2018-01-15T08:47:02.811Z,95883
2018-01-15T08:49:31.786Z,95889
2018-01-15T08:52:00.746Z,95891
2018-01-15T08:54:30.483Z,95876
2018-01-15T08:56:59.437Z,95878
2018-01-15T08:59:28.398Z,95885
2018-01-15T09:01:57.358Z,95880
2018-01-15T09:04:26.329Z,95877
2018-01-15T09:06:56.040Z,95867
2018-01-15T09:09:25.787Z,95869
2018-01-15T09:11:54.739Z,95872
2018-01-15T09:14:24.475Z,95870
2018-01-15T09:16:53.418Z,95877
2018-01-15T09:19:22.390Z,95863
2018-01-15T09:21:51.347Z,95859
2018-01-15T09:24:26.104Z,95851
2018-01-15T09:26:55.058Z,95847
2018-01-15T09:29:24.031Z,95852
2018-01-15T09:31:52.977Z,95846
2018-01-15T09:34:22.119Z,95851
2018-01-15T09:36:51.842Z,95841
2018-01-15T09:39:21.589Z,95842
2018-01-15T09:41:50.562Z,95840
2018-01-15T09:44:19.510Z,95836
2018-01-15T09:46:48.487Z,95829
2018-01-15T09:49:17.453Z,95831
2018-01-15T09:51:46.426Z,95821
2018-01-15T09:54:15.388Z,95820
2018-01-15T09:56:45.131Z,95814
2018-01-15T09:59:14.086Z,95810
2018-01-15T10:01:43.070Z,95793
2018-01-15T10:04:12.033Z,95788
2018-01-15T10:06:41.011Z,95798
2018-01-15T10:09:09.975Z,95795
2018-01-15T10:11:38.950Z,95792
2018-01-15T10:14:08.680Z,95788
2018-01-15T10:16:37.683Z,95783
2018-01-15T10:19:06.658Z,95777
2018-01-15T10:21:35.628Z,95781
2018-01-15T10:24:04.614Z,95766
2018-01-15T10:26:33.582Z,95762
2018-01-15T10:29:02.570Z,95751
2018-01-15T10:31:32.472Z,95745
2018-01-15T10:34:01.454Z,95736
2018-01-15T10:36:30.422Z,95734
2018-01-15T10:38:59.407Z,95726
2018-01-15T10:41:29.145Z,95724
2018-01-15T10:43:58.127Z,95719
2018-01-15T10:46:27.895Z,95702
2018-01-15T10:48:56.987Z,95702
2018-01-15T10:51:25.952Z,95685
2018-01-15T10:54:04.652Z,95678
2018-01-15T10:56:33.609Z,95668
2018-01-15T10:59:02.617Z,95673
2018-01-15T11:01:32.343Z,95670
2018-01-15T11:04:01.302Z,95656
2018-01-15T11:06:30.287Z,95663
2018-01-15T11:08:59.260Z,95683
2018-01-15T11:11:28.242Z,95660
2018-01-15T11:13:57.210Z,95664
2018-01-15T11:16:26.196Z,95663
2018-01-15T11:18:55.150Z,95661
2018-01-15T11:21:24.130Z,95647
2018-01-15T11:23:53.107Z,95645
2018-01-15T11:26:22.087Z,95644
2018-01-15T11:28:51.047Z,95639
2018-01-15T11:31:20.038Z,95643
2018-01-15T11:33:49.762Z,95626
2018-01-15T11:36:18.752Z,95632
2018-01-15T11:38:47.743Z,95624
2018-01-15T11:41:16.717Z,95624
2018-01-15T11:43:46.456Z,95627
2018-01-15T11:46:15.409Z,95619
2018-01-15T11:48:44.383Z,95617
2018-01-15T11:51:13.355Z,95605
2018-01-15T11:53:42.330Z,95611
2018-01-15T11:56:11.296Z,95593
2018-01-15T11:58:41.047Z,95596
2018-01-15T12:01:10.013Z,95589
2018-01-15T12:03:39.008Z,95591
2018-01-15T12:06:07.966Z,95593
2018-01-15T12:08:37.703Z,95576
2018-01-15T12:11:06.687Z,95567
2018-01-15T12:13:36.416Z,95574
2018-01-15T12:16:05.386Z,95565
2018-01-15T12:18:35.120Z,95555
2018-01-15T12:21:04.140Z,95551
2018-01-15T12:23:33.133Z,95547
2018-01-15T12:26:02.326Z,95537
2018-01-15T12:28:31.375Z,95532
2018-01-15T12:31:01.223Z,95540
2018-01-15T12:33:30.226Z,95534
2018-01-15T12:35:59.191Z,95540
2018-01-15T12:38:28.177Z,95521
2018-01-15T12:40:57.156Z,95530
2018-01-15T12:43:28.520Z,95516
2018-01-15T12:45:57.486Z,95507
2018-01-15T12:48:27.246Z,95515
2018-01-15T12:50:56.305Z,95513
2018-01-15T12:53:25.442Z,95508
2018-01-15T12:55:54.576Z,95507
2018-01-15T12:58:24.437Z,95488
2018-01-15T13:00:53.600Z,95490
2018-01-15T13:03:23.458Z,95484
2018-01-15T13:05:52.557Z,95470
2018-01-15T13:11:39.926Z,95463
2018-01-15T13:14:08.962Z,95464
2018-01-15T13:16:38.022Z,95458
2018-01-15T13:19:08.011Z,95460
2018-01-15T13:21:37.062Z,95451
2018-01-15T13:24:06.137Z,95453
2018-01-15T13:26:35.200Z,95444
2018-01-15T13:29:04.256Z,95437
2018-01-15T13:31:34.556Z,95441
2018-01-15T13:34:05.106Z,95432
2018-01-15T13:36:34.401Z,95420
2018-01-15T13:39:03.573Z,95418
2018-01-15T13:41:33.364Z,95419
2018-01-15T13:44:04.726Z,95415
2018-01-15T13:46:33.737Z,95398
2018-01-15T13:49:02.821Z,95404
2018-01-15T13:51:32.711Z,95397
2018-01-15T13:54:01.661Z,95398
2018-01-15T13:56:30.639Z,95388
2018-01-15T13:58:59.590Z,95382
2018-01-15T14:01:30.480Z,95377
2018-01-15T14:03:59.394Z,95376
2018-01-15T14:06:28.376Z,95375
2018-01-15T14:08:57.327Z,95371
2018-01-15T14:11:27.190Z,95372
2018-01-15T14:13:56.142Z,95358
2018-01-15T14:16:25.863Z,95358
2018-01-15T14:18:54.833Z,95358
2018-01-15T14:21:24.026Z,95341
2018-01-15T14:23:53.795Z,95339
2018-01-15T14:26:23.365Z,95328
2018-01-15T14:28:53.071Z,95334
2018-01-15T14:31:22.954Z,95320
2018-01-15T14:33:51.899Z,95316
2018-01-15T14:36:20.851Z,95306
2018-01-15T14:38:50.610Z,95312
2018-01-15T14:41:19.598Z,95308
2018-01-15T14:43:48.570Z,95297
2018-01-15T14:46:17.535Z,95293
2018-01-15T14:48:46.505Z,95281
2018-01-15T14:51:15.459Z,95267
2018-01-15T14:53:44.534Z,95264
2018-01-15T14:56:14.335Z,95256
2018-01-15T14:58:43.311Z,95260
2018-01-15T15:01:12.272Z,95239
2018-01-15T15:03:41.231Z,95241
2018-01-15T15:06:10.194Z,95236
2018-01-15T15:08:39.155Z,95221
2018-01-15T15:11:08.159Z,95212
2018-01-15T15:13:37.131Z,95202
2018-01-15T15:16:06.128Z,95197
2018-01-15T15:18:35.110Z,95194
2018-01-15T15:21:04.083Z,95187
2018-01-15T15:23:33.100Z,95185
2018-01-15T15:26:02.061Z,95188
2018-01-15T15:28:31.030Z,95184
2018-01-15T15:31:00.076Z,95172
2018-01-15T15:33:29.035Z,95178
2018-01-15T15:35:57.991Z,95160
2018-01-15T15:38:26.970Z,95157
2018-01-15T15:40:55.926Z,95148
2018-01-15T15:43:24.892Z,95144
2018-01-15T15:45:54.614Z,95148
2018-01-15T15:48:23.704Z,95145
2018-01-15T15:50:53.422Z,95136
2018-01-15T15:53:22.376Z,95137
2018-01-15T15:55:51.419Z,95130
2018-01-15T15:58:20.370Z,95118
2018-01-15T16:00:49.337Z,95104
2018-01-15T16:03:18.281Z,95091
2018-01-15T16:05:47.273Z,95088
2018-01-15T16:08:17.021Z,95075
2018-01-15T16:10:46.017Z,95071
2018-01-15T16:13:14.982Z,95061
2018-01-15T16:15:43.950Z,95059
2018-01-15T16:18:13.678Z,95046
2018-01-15T16:20:42.682Z,95044
2018-01-15T16:23:11.630Z,95048
2018-01-15T16:25:41.395Z,95034
2018-01-15T16:28:10.370Z,95044
2018-01-15T16:30:39.403Z,95039
2018-01-15T16:33:08.378Z,95039
2018-01-15T16:35:37.345Z,95023
2018-01-15T16:38:07.310Z,95027
2018-01-15T16:40:36.278Z,95024
2018-01-15T16:43:05.370Z,95023
2018-01-15T16:45:34.336Z,95027
2018-01-15T16:48:03.328Z,95023
2018-01-15T16:50:32.319Z,95014
2018-01-15T16:53:01.533Z,95003
2018-01-15T16:55:30.522Z,95009
2018-01-15T16:57:59.485Z,94992
2018-01-15T17:00:28.557Z,94989
2018-01-15T17:02:57.489Z,95000
2018-01-15T17:05:27.460Z,94986
2018-01-15T17:07:56.415Z,94986
2018-01-15T17:10:26.306Z,94986
2018-01-15T17:13:01.462Z,94978
2018-01-15T17:15:33.133Z,94972
2018-01-15T17:18:13.965Z,94961
2018-01-15T17:20:47.122Z,94957
2018-01-15T17:23:16.993Z,94952
2018-01-15T17:25:45.954Z,94948
2018-01-15T17:28:16.626Z,94940
2018-01-15T17:30:45.606Z,94936
2018-01-15T17:33:19.726Z,94932
2018-01-15T17:35:48.675Z,94928
2018-01-15T17:38:17.642Z,94898
2018-01-15T17:40:46.686Z,94913
2018-01-15T17:43:16.610Z,94907
2018-01-15T17:45:45.571Z,94905
2018-01-15T17:48:15.308Z,94896
2018-01-15T17:50:44.262Z,94887
2018-01-15T17:53:14.003Z,94882
2018-01-15T17:55:42.950Z,94890
2018-01-15T17:58:11.918Z,94942
2018-01-15T18:00:40.885Z,94909
2018-01-15T18:03:09.854Z,94891
2018-01-15T18:05:39.086Z,94881
2018-01-15T18:08:08.133Z,94878
2018-01-15T18:10:37.977Z,94868
2018-01-15T18:13:10.307Z,94871
2018-01-15T18:15:40.066Z,94868
2018-01-15T18:18:09.010Z,94865
2018-01-15T18:20:37.973Z,94862
2018-01-15T18:23:06.929Z,94849
2018-01-15T18:25:35.894Z,94840
2018-01-15T18:28:05.607Z,94844
2018-01-15T18:30:35.343Z,94833
2018-01-15T18:33:04.294Z,94830
2018-01-15T18:35:34.179Z,94822
2018-01-15T18:38:03.142Z,94826
2018-01-15T18:40:32.109Z,94825
2018-01-15T18:43:01.833Z,94856
2018-01-15T18:45:31.736Z,94830
2018-01-15T18:48:01.459Z,94819
2018-01-15T18:50:31.194Z,94821
2018-01-15T18:53:00.215Z,94825
2018-01-15T18:55:29.154Z,94809
2018-01-15T18:57:58.126Z,94821
2018-01-15T19:00:27.852Z,94807
2018-01-15T19:02:57.587Z,94814
2018-01-15T19:05:26.537Z,94814
2018-01-15T19:07:56.279Z,94799
2018-01-15T19:10:25.235Z,94795
2018-01-15T19:12:54.971Z,94798
2018-01-15T19:15:23.926Z,94803
2018-01-15T19:17:52.898Z,94794
2018-01-15T19:20:22.788Z,94792
2018-01-15T19:22:51.774Z,94785
2018-01-15T19:25:20.731Z,94774
2018-01-15T19:27:49.673Z,94783
2018-01-15T19:30:18.650Z,94769
2018-01-15T19:32:47.607Z,94775
2018-01-15T19:35:18.647Z,94769
2018-01-15T19:37:48.911Z,94760
2018-01-15T19:40:17.883Z,94755
2018-01-15T19:42:51.042Z,94749
2018-01-15T19:48:36.903Z,94746
2018-01-15T19:51:11.313Z,94738
2018-01-15T19:56:54.482Z,94733
2018-01-15T19:59:30.853Z,94718
2018-01-15T20:02:06.035Z,94721
2018-01-15T20:04:40.686Z,94708
2018-01-15T20:07:17.114Z,94700
2018-01-15T20:09:51.591Z,94699
2018-01-15T20:12:22.238Z,94692
2018-01-15T20:14:51.438Z,94689
2018-01-15T20:17:21.058Z,94682
2018-01-15T20:19:50.018Z,94661
2018-01-15T20:22:19.203Z,94651
2018-01-15T20:24:48.150Z,94640
2018-01-15T20:27:17.271Z,94641
2018-01-15T20:29:46.302Z,94646
2018-01-15T20:32:15.525Z,94634
2018-01-15T20:34:46.114Z,94627
2018-01-15T20:37:15.252Z,94627
2018-01-15T20:39:44.344Z,94629
2018-01-15T20:42:19.930Z,94621
2018-01-15T20:44:50.506Z,94613
2018-01-15T20:47:20.459Z,94611
2018-01-15T20:49:50.312Z,94598
2018-01-15T20:52:19.492Z,94587
2018-01-15T20:54:49.648Z,94584
2018-01-15T20:57:20.188Z,94570
2018-01-15T20:59:51.473Z,94570
2018-01-15T21:02:20.525Z,94543
2018-01-15T21:04:49.575Z,94557
2018-01-15T21:07:19.303Z,94551
2018-01-15T21:09:48.247Z,94535
2018-01-15T21:12:17.215Z,94542
2018-01-15T21:14:47.090Z,94530
2018-01-15T21:17:16.060Z,94530
2018-01-15T21:19:45.791Z,94527
2018-01-15T21:22:14.878Z,94523
2018-01-15T21:24:43.827Z,94516
2018-01-15T21:27:12.774Z,94497
2018-01-15T21:29:41.752Z,94498
2018-01-15T21:32:10.698Z,94482
2018-01-15T21:34:39.671Z,94500
2018-01-15T21:37:08.620Z,94474
2018-01-15T21:39:38.358Z,94472
2018-01-15T21:42:07.319Z,94461
2018-01-15T21:44:37.051Z,94480
2018-01-15T21:47:06.002Z,94482
2018-01-15T21:49:34.974Z,94485
2018-01-15T21:52:03.935Z,94463
2018-01-15T21:54:34.879Z,94462
2018-01-15T21:57:03.823Z,94480
2018-01-15T21:59:34.012Z,94481
2018-01-15T22:02:02.954Z,94476
2018-01-15T22:04:32.910Z,94464
2018-01-15T22:07:01.867Z,94472
2018-01-15T22:09:36.770Z,94466
2018-01-15T22:12:05.711Z,94459
2018-01-15T22:14:34.651Z,94455
2018-01-15T22:17:03.627Z,94477
2018-01-15T22:19:32.590Z,94459
2018-01-15T22:22:01.551Z,94455
2018-01-15T22:24:30.495Z,94474
2018-01-15T22:26:59.458Z,94496
2018-01-15T22:29:40.946Z,94463
2018-01-15T22:32:09.902Z,94447
2018-01-15T22:34:39.614Z,94447
2018-01-15T22:37:09.348Z,94445
2018-01-15T22:39:38.287Z,94432
2018-01-15T22:42:07.249Z,94452
2018-01-15T22:44:36.190Z,94439
2018-01-15T22:47:05.923Z,94437
2018-01-15T22:49:34.864Z,94425
2018-01-15T22:52:03.814Z,94426
2018-01-15T22:54:42.814Z,94409
2018-01-15T22:57:13.278Z,94417
2018-01-15T22:59:42.218Z,94411
2018-01-15T23:02:11.182Z,94404
2018-01-15T23:04:40.122Z,94414
2018-01-15T23:07:09.855Z,94391
2018-01-15T23:09:38.800Z,94409
2018-01-15T23:12:07.770Z,94392
2018-01-15T23:14:36.714Z,94403
2018-01-15T23:17:06.443Z,94389
2018-01-15T23:19:35.392Z,94394
2018-01-15T23:22:04.350Z,94393
2018-01-15T23:24:33.300Z,94374
2018-01-15T23:27:03.041Z,94372
2018-01-15T23:29:31.983Z,94378
2018-01-15T23:32:01.695Z,94386
2018-01-15T23:34:31.425Z,94376
2018-01-15T23:37:00.367Z,94372
2018-01-15T23:39:29.337Z,94375
2018-01-15T23:42:04.165Z,94368
2018-01-15T23:44:33.135Z,94363
2018-01-15T23:47:02.074Z,94355
2018-01-15T23:49:31.036Z,94356
2018-01-15T23:51:59.974Z,94358
2018-01-15T23:54:33.942Z,94348
2018-01-15T23:57:02.898Z,94344
2018-01-15T23:59:37.458Z,94348
